East Leroy, Michigan
Current Conditions -  °F | °C
As of 3:53 PM on Monday 22 Dec 2014 (Local Time) from KBTL Reporting Station
Overcast Overcast  
Wind Chill: 33°   Ceiling: 8000
Heat Index: 39°   Visibility: 10mi
Dew Point: 30°   Wind: 9mph
Humidity: 70%   Direction: 110°ESE
Pressure: 29.85"   Gusts: NA
Location:  42.17°N, 85.22°W
Report Text: KBTL 222053Z 11008KT 10SM SCT050 OVC080 04/M01 A2985 RMK AO2 RAB03E43 SLP118 P0000 60000 T00391011 56023
Loading
Personal Weather Stations






























Interactive Weather Map New forecast layout! Learn more

10-Day Weather Forecast

Advertisements
Track Severe Weather on mobile